Time;durP1;ratioP1;P1;durP2;ratioP2;P2;SDS_P1;SDS_P2;PMS_P1;PMS_P2;Temp;Humidity;BMP_temperature;BMP_pressure;BME280_temperature;BME280_humidity;BME280_pressure;Samples;Min_cycle;Max_cycle;Signal;HPM_P1;HPM_P2
2021/12/06 00:01:52;;;;;;;32.50;18.43;;;2.10;99.90;;;;;;6306093;22;20011;-82
2021/12/06 00:04:37;;;;;;;35.27;19.20;;;2.00;99.90;;;;;;6306650;22;20013;-82
2021/12/06 00:07:24;;;;;;;36.60;19.33;;;2.10;99.90;;;;;;6304768;22;20073;-83
2021/12/06 00:10:10;;;;;;;32.73;19.33;;;2.10;99.90;;;;;;6308091;22;20091;-83
2021/12/06 00:12:54;;;;;;;34.43;19.77;;;2.10;99.90;;;;;;6307336;22;20054;-82
2021/12/06 00:15:38;;;;;;;37.63;20.17;;;2.10;99.90;;;;;;6307258;22;20098;-82
2021/12/06 00:18:23;;;;;;;35.13;20.77;;;2.20;99.90;;;;;;6284933;22;20022;-82
2021/12/06 00:21:08;;;;;;;38.57;20.13;;;2.20;99.90;;;;;;6307396;22;20068;-82
2021/12/06 00:23:52;;;;;;;39.87;21.27;;;2.20;99.90;;;;;;6308441;22;20014;-82
2021/12/06 00:26:37;;;;;;;40.30;21.00;;;2.10;99.90;;;;;;6306664;22;20018;-82
2021/12/06 00:29:21;;;;;;;;;;;2.10;99.90;;;;;;6307284;22;20448;-82
2021/12/06 00:32:06;;;;;;;41.58;20.63;;;2.30;99.90;;;;;;6307151;22;19972;-82
2021/12/06 00:34:51;;;;;;;44.33;20.87;;;2.00;99.90;;;;;;6307067;22;20014;-82
2021/12/06 00:37:42;;;;;;;44.53;23.10;;;2.40;99.90;;;;;;6284638;22;20076;-82
2021/12/06 00:40:31;;;;;;;40.90;20.03;;;2.70;99.90;;;;;;6306609;22;20030;-82
2021/12/06 00:43:16;;;;;;;47.47;22.13;;;2.00;99.90;;;;;;6307923;22;20049;-85
2021/12/06 00:46:00;;;;;;;42.30;21.97;;;2.70;99.90;;;;;;6306977;22;20057;-82
2021/12/06 00:48:45;;;;;;;43.07;22.10;;;2.00;99.90;;;;;;6307066;22;20090;-82
2021/12/06 00:51:29;;;;;;;42.10;20.17;;;3.00;99.90;;;;;;6306440;22;20064;-82
2021/12/06 00:54:15;;;;;;;44.60;22.10;;;2.00;99.90;;;;;;6306907;22;20098;-83
2021/12/06 00:57:02;;;;;;;45.57;21.90;;;2.00;99.90;;;;;;6285623;22;20017;-82
2021/12/06 00:59:47;;;;;;;42.30;21.20;;;2.00;99.90;;;;;;6306868;22;20022;-82
2021/12/06 01:02:31;;;;;;;40.33;21.83;;;2.00;99.90;;;;;;6306242;22;20094;-82
2021/12/06 01:05:16;;;;;;;;;;;2.20;99.90;;;;;;6308529;22;20097;-82
2021/12/06 01:08:00;;;;;;;;;;;2.10;99.90;;;;;;6308474;22;20374;-83
2021/12/06 01:10:45;;;;;;;47.55;23.80;;;2.50;99.90;;;;;;6306732;22;20031;-82
2021/12/06 01:13:30;;;;;;;45.47;21.93;;;2.00;99.90;;;;;;6306134;22;20014;-82
2021/12/06 01:16:16;;;;;;;43.27;21.67;;;2.00;99.90;;;;;;6306632;22;20440;-83
2021/12/06 01:19:00;;;;;;;47.90;23.70;;;2.60;99.90;;;;;;6306801;22;20018;-82
2021/12/06 01:21:55;;;;;;;50.20;24.03;;;2.10;99.90;;;;;;6284009;22;20014;-82
2021/12/06 01:24:45;;;;;;;49.72;23.35;;;2.60;99.90;;;;;;6307297;22;20075;-82
2021/12/06 01:39:26;;;;;;;47.93;23.30;;;2.50;99.90;;;;;;6307620;22;20026;-84
2021/12/06 01:42:11;;;;;;;51.33;23.73;;;2.20;99.90;;;;;;6306618;22;20013;-82
2021/12/06 01:44:57;;;;;;;49.60;23.03;;;2.10;99.90;;;;;;6307667;22;20017;-82
2021/12/06 01:47:42;;;;;;;48.53;24.17;;;2.20;99.90;;;;;;6305857;22;20014;-82
2021/12/06 01:50:30;;;;;;;45.27;23.43;;;2.20;99.90;;;;;;6307195;22;20450;-85
2021/12/06 01:53:15;;;;;;;48.27;23.70;;;3.10;99.90;;;;;;6285017;22;20452;-82
2021/12/06 01:55:59;;;;;;;47.40;24.33;;;2.20;99.90;;;;;;6307554;22;20316;-82
2021/12/06 01:58:44;;;;;;;45.17;22.97;;;2.60;99.90;;;;;;6305674;22;20457;-82
2021/12/06 02:01:29;;;;;;;51.70;24.90;;;2.20;99.90;;;;;;6307008;22;20014;-83
2021/12/06 02:04:14;;;;;;;53.70;25.57;;;3.10;99.90;;;;;;6307493;22;20038;-82
2021/12/06 02:06:59;;;;;;;51.87;26.40;;;2.70;99.90;;;;;;6306512;22;20345;-82
2021/12/06 02:09:45;;;;;;;47.73;24.40;;;2.20;99.90;;;;;;6305755;22;20101;-83
2021/12/06 02:12:31;;;;;;;47.43;24.33;;;2.20;99.90;;;;;;6305636;22;20030;-83
2021/12/06 02:15:57;;;;;;;53.27;26.10;;;2.30;99.90;;;;;;6284552;22;20091;-83
2021/12/06 02:21:13;;;;;;;52.07;26.07;;;2.20;99.90;;;;;;6307494;22;20076;-84
2021/12/06 02:23:58;;;;;;;;;;;2.20;99.90;;;;;;6308018;22;20014;-82
2021/12/06 02:26:43;;;;;;;50.63;25.00;;;2.20;99.90;;;;;;6305434;22;19913;-83
2021/12/06 02:29:29;;;;;;;51.10;24.77;;;2.60;99.90;;;;;;6307219;22;20017;-82
2021/12/06 02:32:14;;;;;;;53.07;26.87;;;3.00;99.90;;;;;;6305878;22;20015;-82
2021/12/06 02:34:59;;;;;;;50.57;26.57;;;2.40;99.90;;;;;;6307173;22;20095;-82
2021/12/06 02:37:44;;;;;;;58.57;27.07;;;2.30;99.90;;;;;;6306410;22;20353;-83
2021/12/06 02:40:31;;;;;;;49.73;24.60;;;2.30;99.90;;;;;;6307159;22;20065;-83
2021/12/06 02:43:15;;;;;;;54.20;25.87;;;2.20;99.90;;;;;;6307111;22;20010;-83
2021/12/06 02:46:00;;;;;;;52.73;25.63;;;3.30;99.90;;;;;;6307012;22;20443;-83
2021/12/06 02:48:45;;;;;;;52.50;25.43;;;2.30;99.90;;;;;;6305233;22;20018;-83
2021/12/06 02:51:29;;;;;;;50.93;25.00;;;2.30;99.90;;;;;;6307131;22;20018;-82
2021/12/06 02:54:14;;;;;;;51.43;24.90;;;2.60;99.90;;;;;;6307518;22;20080;-83
2021/12/06 02:59:55;;;;;;;49.60;25.50;;;2.70;99.90;;;;;;6305430;22;20080;-83
2021/12/06 03:02:39;;;;;;;53.40;25.80;;;2.30;99.90;;;;;;6305110;22;20018;-83
2021/12/06 03:05:23;;;;;;;;;;;2.30;99.90;;;;;;6306107;22;20018;-82
2021/12/06 03:08:08;;;;;;;52.28;24.05;;;2.50;99.90;;;;;;6305995;22;20248;-82
2021/12/06 03:10:52;;;;;;;45.83;22.73;;;2.80;99.90;;;;;;6305099;22;20014;-82
2021/12/06 03:13:37;;;;;;;47.23;24.00;;;2.30;99.90;;;;;;6306578;22;20018;-85
2021/12/06 03:16:22;;;;;;;51.50;25.33;;;2.90;99.90;;;;;;6306829;22;20011;-83
2021/12/06 03:19:07;;;;;;;46.33;24.97;;;2.70;99.90;;;;;;6306713;22;20021;-82
2021/12/06 03:21:52;;;;;;;46.53;23.87;;;2.30;99.90;;;;;;6304991;22;20378;-82
2021/12/06 03:24:36;;;;;;;47.50;23.20;;;2.30;99.90;;;;;;6305478;22;20018;-86
2021/12/06 03:27:21;;;;;;;49.10;26.57;;;2.30;99.90;;;;;;6306918;22;20013;-82
2021/12/06 03:30:09;;;;;;;49.10;24.63;;;3.10;99.90;;;;;;6306981;22;20018;-82
2021/12/06 03:32:53;;;;;;;51.97;26.37;;;2.30;99.90;;;;;;6306313;22;20014;-82
2021/12/06 03:35:38;;;;;;;50.40;25.20;;;2.30;99.90;;;;;;6306572;22;20396;-87
2021/12/06 03:38:22;;;;;;;48.40;24.03;;;2.40;99.90;;;;;;6306739;22;20076;-83
2021/12/06 03:41:09;;;;;;;52.80;26.07;;;2.90;99.90;;;;;;6305363;22;20081;-83
2021/12/06 03:43:54;;;;;;;49.97;23.90;;;2.40;99.90;;;;;;6305364;22;20064;-83
2021/12/06 03:46:40;;;;;;;48.90;24.23;;;3.00;99.90;;;;;;6308822;22;20037;-83
2021/12/06 03:49:25;;;;;;;48.03;25.33;;;2.40;99.90;;;;;;6307798;22;20014;-83
2021/12/06 03:52:12;;;;;;;50.87;25.63;;;2.40;99.90;;;;;;6308457;22;20013;-83
2021/12/06 03:54:56;;;;;;;55.43;25.53;;;2.40;99.90;;;;;;6308293;22;20443;-82
2021/12/06 03:57:40;;;;;;;;;;;2.40;99.90;;;;;;6309176;22;20074;-85
2021/12/06 04:00:25;;;;;;;51.35;24.20;;;2.40;99.90;;;;;;6307736;22;19914;-83
2021/12/06 04:03:10;;;;;;;50.50;26.23;;;2.40;99.90;;;;;;6307462;22;20014;-83
2021/12/06 04:05:56;;;;;;;56.00;25.80;;;2.50;99.90;;;;;;6307000;22;20337;-83
2021/12/06 04:08:40;;;;;;;59.47;28.27;;;3.10;99.90;;;;;;6285560;22;20068;-82
2021/12/06 04:11:25;;;;;;;57.97;25.67;;;2.40;99.90;;;;;;6307267;22;20017;-83
2021/12/06 04:14:09;;;;;;;62.93;26.93;;;2.40;99.90;;;;;;6308426;22;20023;-83
2021/12/06 04:16:54;;;;;;;55.57;25.73;;;2.40;99.90;;;;;;6308138;22;20011;-83
2021/12/06 04:19:38;;;;;;;55.80;25.63;;;2.40;99.90;;;;;;6307252;22;20393;-84
2021/12/06 04:22:22;;;;;;;56.90;25.67;;;2.40;99.90;;;;;;6307237;22;20068;-83
2021/12/06 04:25:09;;;;;;;59.23;27.17;;;2.40;99.90;;;;;;6306625;22;20014;-83
2021/12/06 04:27:56;;;;;;;58.37;26.30;;;2.40;99.90;;;;;;6306580;22;20334;-83
2021/12/06 04:30:41;;;;;;;58.90;25.60;;;2.50;99.90;;;;;;6285964;22;20050;-83
2021/12/06 04:33:28;;;;;;;67.43;28.57;;;2.40;99.90;;;;;;6308368;22;20018;-82
2021/12/06 04:36:13;;;;;;;57.67;26.33;;;2.40;99.90;;;;;;6307210;22;20068;-83
2021/12/06 04:38:57;;;;;;;58.97;26.73;;;2.50;99.90;;;;;;6307839;22;20053;-83
2021/12/06 04:41:42;;;;;;;54.87;26.57;;;2.50;99.90;;;;;;6307096;22;20057;-82
2021/12/06 04:44:27;;;;;;;60.37;27.73;;;2.50;99.90;;;;;;6308274;22;20060;-83
2021/12/06 04:47:11;;;;;;;57.10;25.77;;;2.70;99.90;;;;;;6284703;22;20077;-82
2021/12/06 04:49:55;;;;;;;59.20;29.43;;;3.00;99.90;;;;;;6306387;22;20018;-82
2021/12/06 04:52:41;;;;;;;57.30;25.33;;;2.60;99.90;;;;;;6306854;22;20093;-82
2021/12/06 04:55:38;;;;;;;55.87;27.13;;;2.50;99.90;;;;;;6306846;22;20034;-82
2021/12/06 04:58:27;;;;;;;59.97;26.60;;;2.50;99.90;;;;;;6306834;22;20068;-82
2021/12/06 05:01:17;;;;;;;53.87;26.73;;;2.50;99.90;;;;;;6306402;22;20013;-82
2021/12/06 05:04:10;;;;;;;54.97;25.03;;;2.50;99.90;;;;;;6306304;22;20015;-82
2021/12/06 05:07:01;;;;;;;57.53;27.37;;;2.60;99.90;;;;;;6306418;22;20013;-83
2021/12/06 05:09:46;;;;;;;57.37;26.70;;;2.50;99.90;;;;;;6308149;22;20441;-83
2021/12/06 05:12:31;;;;;;;56.17;26.17;;;2.50;99.90;;;;;;6308086;22;20490;-82
2021/12/06 05:15:19;;;;;;;61.67;26.73;;;3.70;99.90;;;;;;6307537;22;20015;-83
2021/12/06 05:18:04;;;;;;;57.07;26.73;;;2.50;99.90;;;;;;6307344;22;20072;-83
2021/12/06 05:20:48;;;;;;;63.23;28.30;;;3.10;99.90;;;;;;6308157;22;20060;-82
2021/12/06 05:23:33;;;;;;;59.67;27.33;;;2.60;99.90;;;;;;6307912;22;20072;-82
2021/12/06 05:26:17;;;;;;;65.33;27.00;;;2.60;99.90;;;;;;6284522;22;20015;-83
2021/12/06 05:29:04;;;;;;;57.27;26.73;;;2.60;99.90;;;;;;6306160;22;20022;-83
2021/12/06 05:31:55;;;;;;;56.77;27.17;;;2.60;99.90;;;;;;6285168;22;20094;-82
2021/12/06 05:34:40;;;;;;;55.03;26.33;;;2.60;99.90;;;;;;6307838;22;20464;-82
2021/12/06 05:37:24;;;;;;;61.07;27.37;;;3.10;99.90;;;;;;6284757;22;20073;-82
2021/12/06 05:40:14;;;;;;;56.43;26.33;;;2.60;99.90;;;;;;6262545;22;20463;-83
2021/12/06 05:43:00;;;;;;;59.73;26.63;;;2.70;99.90;;;;;;6305903;22;20058;-83
2021/12/06 05:45:44;;;;;;;63.63;26.80;;;2.60;99.90;;;;;;6307877;22;20034;-82
2021/12/06 05:48:29;;;;;;;68.77;28.07;;;2.60;99.90;;;;;;6306385;22;20034;-82
2021/12/06 05:51:14;;;;;;;61.47;28.33;;;2.90;99.90;;;;;;6305922;22;20018;-82
2021/12/06 05:53:58;;;;;;;63.57;27.93;;;2.90;99.90;;;;;;6307598;22;20142;-85
2021/12/06 05:56:42;;;;;;;54.93;26.97;;;2.60;99.90;;;;;;6284733;22;20014;-82
2021/12/06 05:59:27;;;;;;;59.10;27.10;;;2.60;99.90;;;;;;6307474;22;20076;-82
2021/12/06 06:02:12;;;;;;;59.70;26.43;;;2.60;99.90;;;;;;6307007;22;20018;-82
2021/12/06 06:04:56;;;;;;;61.30;28.07;;;2.70;99.90;;;;;;6284510;22;20068;-82
2021/12/06 06:07:40;;;;;;;;;;;3.10;99.90;;;;;;6306572;22;20018;-83
2021/12/06 06:10:25;;;;;;;63.15;27.30;;;2.70;99.90;;;;;;6306050;22;19933;-83
2021/12/06 06:13:09;;;;;;;;;;;2.70;99.90;;;;;;6306221;22;20024;-83
2021/12/06 06:15:55;;;;;;;66.53;26.73;;;2.70;99.90;;;;;;6306315;22;20241;-83
2021/12/06 06:18:39;;;;;;;61.00;26.47;;;2.60;99.90;;;;;;6307342;22;20400;-82
2021/12/06 06:21:23;;;;;;;63.23;27.03;;;2.60;99.90;;;;;;6305599;22;20017;-82
2021/12/06 06:24:08;;;;;;;56.27;25.97;;;3.30;99.90;;;;;;6305429;22;20018;-82
2021/12/06 06:26:52;;;;;;;;;;;2.60;99.90;;;;;;6307870;22;20017;-82
2021/12/06 06:29:37;;;;;;;53.65;24.70;;;2.60;99.90;;;;;;6307622;22;19914;-82
2021/12/06 06:32:21;;;;;;;58.33;25.17;;;2.70;99.90;;;;;;6302806;22;20014;-82
2021/12/06 06:35:07;;;;;;;60.30;26.80;;;3.20;99.90;;;;;;6283244;22;20076;-83
2021/12/06 06:37:52;;;;;;;54.77;25.07;;;2.50;99.90;;;;;;6306943;22;20018;-82
2021/12/06 06:40:36;;;;;;;59.53;25.03;;;2.70;99.90;;;;;;6307372;22;20464;-82
2021/12/06 06:43:21;;;;;;;61.63;26.07;;;2.50;99.90;;;;;;6261499;22;20018;-82
2021/12/06 06:46:06;;;;;;;56.27;23.77;;;3.30;99.90;;;;;;6306580;22;20061;-82
2021/12/06 06:48:50;;;;;;;60.40;25.70;;;2.50;99.90;;;;;;6307014;22;20092;-82
2021/12/06 06:51:34;;;;;;;;;;;2.90;99.90;;;;;;6306435;22;20064;-82
2021/12/06 06:54:18;;;;;;;62.42;26.15;;;2.50;99.90;;;;;;6283108;22;20241;-82
2021/12/06 06:57:03;;;;;;;62.53;25.77;;;2.50;99.90;;;;;;6305593;22;20018;-83
2021/12/06 06:59:48;;;;;;;61.93;25.90;;;2.50;99.90;;;;;;6306922;22;20104;-82
2021/12/06 07:02:32;;;;;;;66.80;26.73;;;2.50;99.90;;;;;;6306870;22;20014;-82
2021/12/06 07:05:16;;;;;;;68.53;28.03;;;2.50;99.90;;;;;;6283365;22;20018;-82
2021/12/06 07:08:01;;;;;;;69.63;27.93;;;2.70;99.90;;;;;;6283973;22;20136;-82
2021/12/06 07:10:49;;;;;;;66.07;28.70;;;2.50;99.90;;;;;;6305472;22;20099;-83
2021/12/06 07:13:37;;;;;;;71.63;27.40;;;2.50;99.90;;;;;;6305919;22;20060;-82
2021/12/06 07:16:22;;;;;;;69.20;27.87;;;2.50;99.90;;;;;;6263450;22;20014;-82
2021/12/06 07:19:07;;;;;;;65.00;25.87;;;2.50;99.90;;;;;;6283032;22;20023;-84
2021/12/06 07:21:51;;;;;;;63.27;25.57;;;3.20;99.90;;;;;;6306856;22;20076;-82
2021/12/06 07:24:36;;;;;;;62.53;26.03;;;3.00;99.90;;;;;;6283698;22;20044;-82
2021/12/06 07:27:21;;;;;;;65.20;26.53;;;3.40;99.90;;;;;;6283241;22;20018;-83
2021/12/06 07:30:07;;;;;;;66.43;26.93;;;2.60;99.90;;;;;;6306856;22;20014;-82
2021/12/06 07:32:52;;;;;;;70.43;26.33;;;2.50;99.90;;;;;;6305476;22;20445;-82
2021/12/06 07:35:36;;;;;;;69.53;26.33;;;1.30;99.90;;;;;;6305556;22;20486;-82
2021/12/06 07:38:21;;;;;;;57.20;24.87;;;2.60;99.90;;;;;;6304622;22;20057;-81
2021/12/06 07:41:08;;;;;;;56.90;25.50;;;3.10;99.90;;;;;;6305563;22;20338;-81
2021/12/06 07:43:52;;;;;;;64.23;24.10;;;2.90;99.90;;;;;;6306696;22;20010;-81
2021/12/06 07:46:36;;;;;;;65.53;24.77;;;2.60;99.90;;;;;;6306433;22;20014;-81
2021/12/06 07:49:21;;;;;;;58.40;24.90;;;2.70;99.90;;;;;;6305000;22;20019;-81
2021/12/06 07:52:06;;;;;;;62.57;24.70;;;2.60;99.90;;;;;;6305418;22;20015;-81
2021/12/06 07:54:51;;;;;;;62.47;26.00;;;2.60;99.90;;;;;;6305230;22;20387;-81
2021/12/06 07:57:35;;;;;;;59.07;24.90;;;2.60;99.90;;;;;;6304717;22;20018;-82
2021/12/06 08:00:23;;;;;;;67.70;24.90;;;2.60;99.90;;;;;;6305934;22;20045;-81
2021/12/06 08:03:08;;;;;;;59.50;22.57;;;2.60;99.90;;;;;;6306442;22;20009;-81
2021/12/06 08:05:54;;;;;;;59.20;24.20;;;2.60;99.90;;;;;;6306686;22;20502;-81
2021/12/06 08:08:40;;;;;;;58.63;23.27;;;3.30;99.90;;;;;;6306077;22;20018;-82
2021/12/06 08:11:25;;;;;;;47.53;22.67;;;2.60;99.90;;;;;;6305889;22;20080;-82
2021/12/06 08:14:10;;;;;;;55.27;23.30;;;2.60;99.90;;;;;;6305425;22;20080;-82
2021/12/06 08:16:54;;;;;;;56.23;22.20;;;2.90;99.90;;;;;;6283914;22;20018;-81
2021/12/06 08:19:38;;;;;;;;;;;3.00;99.90;;;;;;6305049;22;20100;-82
2021/12/06 08:22:22;;;;;;;47.72;20.27;;;2.60;99.90;;;;;;6304785;22;19930;-82
2021/12/06 08:25:08;;;;;;;48.73;20.53;;;2.60;99.90;;;;;;6283477;22;20100;-81
2021/12/06 08:27:53;;;;;;;51.83;20.77;;;2.60;99.90;;;;;;6305206;22;20099;-81
2021/12/06 08:30:37;;;;;;;47.57;20.70;;;2.60;99.90;;;;;;6305597;22;20566;-81
2021/12/06 08:33:22;;;;;;;;;;;2.90;99.90;;;;;;6307024;22;20014;-83
2021/12/06 08:36:09;;;;;;;45.37;19.10;;;3.20;99.90;;;;;;6307223;22;19910;-82
2021/12/06 08:38:54;;;;;;;46.03;19.57;;;3.00;99.90;;;;;;6307047;22;20022;-82
2021/12/06 08:41:38;;;;;;;46.43;20.63;;;2.60;99.90;;;;;;6306506;22;20023;-81
2021/12/06 08:44:22;;;;;;;46.60;21.20;;;3.30;99.90;;;;;;6306445;22;20030;-82
2021/12/06 08:47:06;;;;;;;;;;;2.80;99.90;;;;;;6308899;22;20014;-82
2021/12/06 08:49:51;;;;;;;40.92;17.17;;;2.70;99.90;;;;;;6308338;22;19917;-81
2021/12/06 08:52:36;;;;;;;39.83;19.07;;;2.70;99.90;;;;;;6306361;22;20015;-81
2021/12/06 08:55:22;;;;;;;43.33;20.40;;;2.70;99.90;;;;;;6306782;22;20066;-84
2021/12/06 08:58:07;;;;;;;46.63;19.73;;;2.70;99.90;;;;;;6308172;22;20018;-81
2021/12/06 09:00:52;;;;;;;43.33;19.90;;;2.70;99.90;;;;;;6306866;22;20065;-81
2021/12/06 09:03:36;;;;;;;43.93;20.57;;;2.60;99.90;;;;;;6306021;22;20099;-82
2021/12/06 09:06:21;;;;;;;45.30;19.50;;;3.20;99.90;;;;;;6306767;22;20017;-81
2021/12/06 09:09:08;;;;;;;43.43;19.00;;;2.60;99.90;;;;;;6306690;22;20073;-81
2021/12/06 09:11:53;;;;;;;43.00;19.10;;;2.60;99.90;;;;;;6307943;22;20014;-82
2021/12/06 09:14:38;;;;;;;45.30;18.60;;;2.70;99.90;;;;;;6306222;22;20338;-81
2021/12/06 09:17:23;;;;;;;41.13;17.70;;;2.60;99.90;;;;;;6307720;22;20030;-84
2021/12/06 09:20:11;;;;;;;44.50;19.87;;;2.60;99.90;;;;;;6306473;22;20452;-81
2021/12/06 09:22:56;;;;;;;46.80;21.77;;;2.60;99.90;;;;;;6307726;22;20110;-81
2021/12/06 09:25:43;;;;;;;42.07;20.00;;;2.60;99.90;;;;;;6307185;22;20014;-83
2021/12/06 09:28:28;;;;;;;46.83;20.50;;;3.00;99.90;;;;;;6307089;22;20018;-84
2021/12/06 09:31:13;;;;;;;45.23;20.10;;;2.60;99.90;;;;;;6306390;22;20099;-82
2021/12/06 09:33:57;;;;;;;40.00;18.57;;;2.60;99.90;;;;;;6263473;22;20018;-81
2021/12/06 09:36:42;;;;;;;41.60;19.07;;;2.70;99.90;;;;;;6307144;22;20010;-81
2021/12/06 09:39:26;;;;;;;;;;;2.60;99.90;;;;;;6284863;22;20076;-82
2021/12/06 09:42:10;;;;;;;42.70;18.90;;;2.60;99.90;;;;;;6305675;22;19914;-80
2021/12/06 09:44:56;;;;;;;;;;;2.60;99.90;;;;;;6307868;22;20065;-81
2021/12/06 09:47:50;;;;;;;40.87;19.70;;;2.60;99.90;;;;;;6305795;22;19914;-81
2021/12/06 09:50:52;;;;;;;30.02;14.25;;;2.60;99.90;;;;;;6305748;22;20507;-81
2021/12/06 09:53:38;;;;;;;40.73;18.83;;;2.60;99.90;;;;;;6306703;22;20017;-81
2021/12/06 09:56:30;;;;;;;36.33;18.03;;;2.60;99.90;;;;;;6307442;22;20497;-81
2021/12/06 09:59:18;;;;;;;39.57;18.23;;;2.70;99.90;;;;;;6307348;22;20117;-79
2021/12/06 10:02:10;;;;;;;32.67;16.47;;;2.70;99.90;;;;;;6307424;22;20034;-80
2021/12/06 10:04:55;;;;;;;37.17;17.10;;;2.70;99.90;;;;;;6305769;22;20444;-79
2021/12/06 10:07:39;;;;;;;36.63;18.10;;;2.70;99.90;;;;;;6306848;22;20017;-80
2021/12/06 10:10:26;;;;;;;37.20;17.00;;;2.60;99.90;;;;;;6306157;22;20018;-79
2021/12/06 10:13:11;;;;;;;40.77;19.47;;;2.70;99.90;;;;;;6307344;22;20015;-79
2021/12/06 10:15:55;;;;;;;39.73;18.60;;;2.90;99.90;;;;;;6306894;22;20011;-80
2021/12/06 10:18:40;;;;;;;;;;;2.70;99.90;;;;;;6305827;22;20072;-80
2021/12/06 10:21:27;;;;;;;53.73;23.77;;;2.60;99.90;;;;;;6307267;22;19914;-80
2021/12/06 10:24:19;;;;;;;47.63;21.93;;;2.60;99.90;;;;;;6306114;22;20013;-79
2021/12/06 10:27:10;;;;;;;52.17;25.80;;;2.60;99.90;;;;;;6305924;22;20517;-80
2021/12/06 10:30:02;;;;;;;59.73;27.37;;;2.60;99.90;;;;;;6306754;22;20633;-80
2021/12/06 10:32:47;;;;;;;73.40;28.87;;;2.60;99.90;;;;;;6305333;22;20087;-80
2021/12/06 10:35:31;;;;;;;;;;;2.70;99.90;;;;;;6307526;22;20029;-80
2021/12/06 10:38:20;;;;;;;;;;;2.60;99.90;;;;;;6307557;22;19993;-81
2021/12/06 10:41:12;;;;;;;61.93;28.27;;;2.60;99.90;;;;;;6307377;22;19909;-80
2021/12/06 10:44:04;;;;;;;66.83;29.27;;;2.60;99.90;;;;;;6305185;22;20029;-80
2021/12/06 10:46:52;;;;;;;56.37;26.87;;;3.10;99.90;;;;;;6306535;22;20326;-80
2021/12/06 10:49:36;;;;;;;58.10;27.70;;;2.70;99.90;;;;;;6306693;22;20342;-83
2021/12/06 10:52:28;;;;;;;46.97;23.13;;;2.70;99.90;;;;;;6305360;22;20017;-81
2021/12/06 10:55:12;;;;;;;48.53;23.30;;;2.70;99.90;;;;;;6307373;22;20058;-80
2021/12/06 10:58:05;;;;;;;45.47;22.00;;;2.70;99.90;;;;;;6305082;22;20022;-80
2021/12/06 11:00:54;;;;;;;46.80;20.33;;;2.70;99.90;;;;;;6306039;22;20013;-81
2021/12/06 11:03:45;;;;;;;45.47;20.57;;;2.90;99.90;;;;;;6306464;22;20052;-84
2021/12/06 11:06:42;;;;;;;40.10;18.80;;;3.40;99.90;;;;;;6305396;22;20511;-81
2021/12/06 11:09:31;;;;;;;45.97;19.70;;;2.80;99.90;;;;;;6306765;22;20015;-80
2021/12/06 11:12:20;;;;;;;43.67;20.43;;;2.80;99.90;;;;;;6306781;22;20014;-81
2021/12/06 11:15:22;;;;;;;39.57;19.17;;;3.10;99.90;;;;;;6283337;22;20017;-80
2021/12/06 11:18:06;;;;;;;37.27;17.43;;;3.90;99.90;;;;;;6306628;22;20018;-80
2021/12/06 11:20:51;;;;;;;31.57;16.17;;;2.80;99.90;;;;;;6283201;22;20018;-81
2021/12/06 11:24:05;;;;;;;33.70;17.03;;;3.20;99.90;;;;;;6305476;22;20419;-81
2021/12/06 11:26:52;;;;;;;33.50;14.63;;;2.90;99.90;;;;;;6304930;22;20045;-81
2021/12/06 11:29:49;;;;;;;29.80;14.53;;;2.90;99.90;;;;;;6304181;22;20013;-80
2021/12/06 11:32:36;;;;;;;31.03;16.93;;;2.90;99.90;;;;;;6306699;22;20016;-80
2021/12/06 11:35:25;;;;;;;27.80;15.57;;;3.40;99.90;;;;;;6305412;22;20089;-81
2021/12/06 11:38:19;;;;;;;28.27;15.67;;;3.00;99.90;;;;;;6306538;22;20022;-81
2021/12/06 11:41:10;;;;;;;34.25;16.25;;;2.90;99.90;;;;;;6304825;22;20077;-80
2021/12/06 11:43:55;;;;;;;32.83;16.73;;;2.90;99.90;;;;;;6306231;22;20084;-80
2021/12/06 11:46:39;;;;;;;31.20;16.57;;;2.90;99.90;;;;;;6283436;22;20392;-81
2021/12/06 11:49:36;;;;;;;33.03;16.10;;;2.90;99.90;;;;;;6283275;22;20046;-81
2021/12/06 11:52:28;;;;;;;34.60;16.47;;;2.90;99.90;;;;;;6304645;22;20076;-81
2021/12/06 11:55:13;;;;;;;31.87;15.97;;;3.40;99.90;;;;;;6304075;22;20018;-81
2021/12/06 11:57:57;;;;;;;28.90;15.47;;;3.20;99.90;;;;;;6304995;22;20498;-82
2021/12/06 12:00:41;;;;;;;;;;;3.00;99.90;;;;;;6282896;22;20182;-82
2021/12/06 12:03:33;;;;;;;33.72;15.20;;;4.10;99.90;;;;;;6305192;22;19949;-82
2021/12/06 12:06:35;;;;;;;32.57;16.80;;;3.10;99.90;;;;;;6307822;22;20345;-82
2021/12/06 12:09:25;;;;;;;33.60;17.97;;;3.00;99.90;;;;;;6306997;22;20341;-82
2021/12/06 12:12:22;;;;;;;32.60;15.80;;;3.00;99.90;;;;;;6306525;22;20017;-82
2021/12/06 12:15:07;;;;;;;36.17;16.97;;;3.10;99.90;;;;;;6306213;22;20640;-81
2021/12/06 12:17:51;;;;;;;35.43;16.33;;;3.10;99.90;;;;;;6307629;22;20037;-81
2021/12/06 12:20:37;;;;;;;30.23;16.13;;;3.10;99.90;;;;;;6307014;22;20014;-82
2021/12/06 12:23:23;;;;;;;35.13;17.27;;;4.20;99.90;;;;;;6284981;22;20014;-81
2021/12/06 12:26:17;;;;;;;36.43;16.97;;;3.10;99.90;;;;;;6307100;22;20080;-83
2021/12/06 12:29:12;;;;;;;33.15;15.20;;;3.20;99.90;;;;;;6305430;22;20112;-81
2021/12/06 12:32:00;;;;;;;29.87;15.83;;;3.30;99.90;;;;;;6306636;22;20336;-81
2021/12/06 12:34:48;;;;;;;32.87;16.60;;;3.80;99.90;;;;;;6308437;22;20013;-81
2021/12/06 12:37:35;;;;;;;32.00;16.50;;;3.20;99.90;;;;;;6308305;22;20045;-81
2021/12/06 12:40:22;;;;;;;31.13;16.17;;;3.20;99.90;;;;;;6308209;22;20099;-82
2021/12/06 12:43:12;;;;;;;30.00;15.97;;;3.30;99.90;;;;;;6307771;22;20014;-82
2021/12/06 12:45:57;;;;;;;33.27;16.47;;;3.30;99.90;;;;;;6307942;22;20333;-81
2021/12/06 12:49:04;;;;;;;32.50;16.03;;;3.40;99.90;;;;;;6306868;22;20018;-82
2021/12/06 12:51:57;;;;;;;37.13;17.37;;;3.30;99.90;;;;;;6308312;22;20010;-81
2021/12/06 12:54:45;;;;;;;33.90;17.73;;;3.40;99.90;;;;;;6308424;22;20080;-82
2021/12/06 12:57:37;;;;;;;40.80;19.00;;;3.40;99.90;;;;;;6308046;22;20021;-81
2021/12/06 13:00:27;;;;;;;42.17;18.67;;;3.40;99.90;;;;;;6308154;22;20077;-81
2021/12/06 13:03:50;;;;;;;41.73;17.90;;;3.40;99.90;;;;;;6307533;22;20017;-81
2021/12/06 13:06:37;;;;;;;42.30;18.97;;;3.40;99.90;;;;;;6306553;22;20519;-81
2021/12/06 13:09:21;;;;;;;46.73;20.43;;;3.50;99.90;;;;;;6306847;22;20349;-82
2021/12/06 13:12:06;;;;;;;46.87;21.10;;;3.60;99.90;;;;;;6307488;22;20026;-81
2021/12/06 13:14:58;;;;;;;48.63;21.87;;;3.50;99.90;;;;;;6283693;22;20018;-80
2021/12/06 13:17:47;;;;;;;45.80;21.77;;;3.50;99.90;;;;;;6285179;22;20018;-81
2021/12/06 13:20:37;;;;;;;46.37;22.57;;;3.50;99.90;;;;;;6307464;22;20014;-82
2021/12/06 13:23:26;;;;;;;45.40;21.37;;;3.50;99.90;;;;;;6306192;22;20046;-82
2021/12/06 13:26:11;;;;;;;49.77;23.43;;;3.50;99.90;;;;;;6305548;22;20020;-82
2021/12/06 13:29:07;;;;;;;51.97;24.47;;;3.50;99.90;;;;;;6307317;22;20017;-84
2021/12/06 13:31:53;;;;;;;54.13;25.43;;;3.60;99.90;;;;;;6306972;22;20014;-81
2021/12/06 13:34:37;;;;;;;57.93;25.13;;;3.50;99.90;;;;;;6306090;22;20333;-83
2021/12/06 13:37:26;;;;;;;55.67;23.50;;;3.70;99.90;;;;;;6306219;22;20065;-82
2021/12/06 13:40:16;;;;;;;54.93;26.00;;;3.50;99.90;;;;;;6306796;22;20153;-82
2021/12/06 13:43:10;;;;;;;58.40;25.67;;;3.50;99.90;;;;;;6305245;22;20096;-82
2021/12/06 13:45:56;;;;;;;;;;;4.30;99.90;;;;;;6307900;22;20015;-81
2021/12/06 13:48:43;;;;;;;59.60;27.67;;;3.50;99.90;;;;;;6306218;22;20274;-81
2021/12/06 13:51:34;;;;;;;54.07;26.57;;;3.70;99.90;;;;;;6305906;22;20052;-81
2021/12/06 13:54:30;;;;;;;64.53;28.87;;;3.50;99.90;;;;;;6306351;22;20042;-81
2021/12/06 13:57:16;;;;;;;64.43;29.03;;;3.50;99.90;;;;;;6305529;22;20030;-82
2021/12/06 14:00:05;;;;;;;67.53;31.47;;;3.40;99.90;;;;;;6306803;22;20030;-83
2021/12/06 14:02:52;;;;;;;65.80;29.80;;;4.20;99.90;;;;;;6307014;22;20487;-81
2021/12/06 14:05:50;;;;;;;70.40;33.07;;;3.40;99.90;;;;;;6305855;22;20452;-81
2021/12/06 14:08:40;;;;;;;71.57;31.13;;;3.50;99.90;;;;;;6307057;22;20483;-80
2021/12/06 14:11:26;;;;;;;70.77;32.27;;;3.40;99.90;;;;;;6305306;22;20014;-81
2021/12/06 14:14:13;;;;;;;73.83;31.00;;;3.50;99.90;;;;;;6305229;22;20018;-81
2021/12/06 14:16:58;;;;;;;64.43;29.60;;;3.50;99.90;;;;;;6306798;22;20015;-81
2021/12/06 14:19:43;;;;;;;;;;;3.40;99.90;;;;;;6306061;22;20468;-81
2021/12/06 14:22:29;;;;;;;67.63;29.00;;;3.50;99.90;;;;;;6283416;22;20237;-81
2021/12/06 14:25:17;;;;;;;69.47;30.73;;;4.10;99.90;;;;;;6283564;22;20014;-81
2021/12/06 14:28:09;;;;;;;64.73;29.93;;;3.60;99.90;;;;;;6306763;22;20441;-81
2021/12/06 14:30:58;;;;;;;67.27;30.23;;;3.50;99.90;;;;;;6305534;22;20010;-81
2021/12/06 14:33:43;;;;;;;62.93;28.43;;;3.40;99.90;;;;;;6306558;22;20338;-80
2021/12/06 14:36:27;;;;;;;69.90;31.47;;;3.50;99.90;;;;;;6283218;22;20015;-81
2021/12/06 14:39:17;;;;;;;63.97;31.07;;;3.40;99.90;;;;;;6304185;22;20153;-81
2021/12/06 14:42:05;;;;;;;67.47;32.70;;;3.60;99.90;;;;;;6305214;22;20010;-80